Time;durP1;ratioP1;P1;durP2;ratioP2;P2;SDS_P1;SDS_P2;PMS_P1;PMS_P2;Temp;Humidity;BMP_temperature;BMP_pressure;BME280_temperature;BME280_humidity;BME280_pressure;Samples;Min_cycle;Max_cycle;Signal;HPM_P1;HPM_P2
2023/01/05 00:01:13;;;;;;;10.88;2.13;;;9.40;99.90;;;;;;4935940;29;20020;-89
2023/01/05 00:03:39;;;;;;;13.68;2.20;;;9.40;99.90;;;;;;4935341;29;20509;-90
2023/01/05 00:06:09;;;;;;;8.93;2.03;;;9.40;99.90;;;;;;4951735;28;20086;-90
2023/01/05 00:08:34;;;;;;;7.30;1.30;;;9.40;99.90;;;;;;4936699;29;20067;-89
2023/01/05 00:22:30;;;;;;;9.95;1.50;;;9.40;99.90;;;;;;4936270;29;20107;-89
2023/01/05 00:24:57;;;;;;;5.68;1.38;;;9.40;99.90;;;;;;4935029;29;20027;-89
2023/01/05 00:27:23;;;;;;;10.85;1.70;;;9.40;99.90;;;;;;4934504;29;20031;-88
2023/01/05 00:29:49;;;;;;;9.35;1.38;;;9.40;99.90;;;;;;4936946;29;20035;-88
2023/01/05 00:32:15;;;;;;;7.32;1.63;;;9.40;99.90;;;;;;4935255;29;20537;-91
2023/01/05 00:34:40;;;;;;;3.75;1.05;;;9.40;99.90;;;;;;4911190;29;20038;-90
2023/01/05 00:37:06;;;;;;;7.13;1.20;;;9.40;99.90;;;;;;4919397;29;20020;-90
2023/01/05 00:39:31;;;;;;;8.38;1.20;;;9.40;99.90;;;;;;4936358;29;20102;-88
2023/01/05 00:41:57;;;;;;;11.80;1.52;;;9.40;99.90;;;;;;4936062;29;20031;-89
2023/01/05 00:44:23;;;;;;;10.60;2.22;;;9.40;99.90;;;;;;4918808;29;20015;-89
2023/01/05 00:46:48;;;;;;;15.82;2.50;;;9.40;99.90;;;;;;4935072;29;20060;-90
2023/01/05 00:49:14;;;;;;;12.32;1.60;;;9.40;99.90;;;;;;4919278;29;20097;-90
2023/01/05 00:51:39;;;;;;;12.32;2.40;;;9.40;99.90;;;;;;4934897;29;20043;-90
2023/01/05 00:54:05;;;;;;;11.20;1.52;;;9.40;99.90;;;;;;4935969;29;20030;-90
2023/01/05 00:56:31;;;;;;;6.45;1.48;;;9.40;99.90;;;;;;4936156;29;20035;-89
2023/01/05 00:58:57;;;;;;;12.68;1.85;;;9.30;99.90;;;;;;4935705;29;20035;-88
2023/01/05 01:01:22;;;;;;;9.55;1.58;;;9.30;99.90;;;;;;4936091;29;20035;-89
2023/01/05 01:03:48;;;;;;;9.23;1.63;;;9.30;99.90;;;;;;4919307;29;20028;-89
2023/01/05 01:06:15;;;;;;;12.52;1.60;;;9.30;99.90;;;;;;4920120;29;20500;-90
2023/01/05 01:08:40;;;;;;;14.65;3.25;;;9.30;99.90;;;;;;4942523;29;20512;-88
2023/01/05 01:11:08;;;;;;;13.85;1.58;;;9.30;99.90;;;;;;4939803;29;20028;-89
2023/01/05 01:13:33;;;;;;;10.65;2.30;;;9.30;99.90;;;;;;4935887;29;20083;-89
2023/01/05 01:16:14;;;;;;;6.75;1.48;;;9.30;99.90;;;;;;4918914;29;20027;-90
2023/01/05 01:18:40;;;;;;;10.35;2.00;;;9.30;99.90;;;;;;4935762;29;20030;-90
2023/01/05 01:21:07;;;;;;;13.00;1.73;;;9.30;99.90;;;;;;4935889;29;20054;-90
2023/01/05 01:23:33;;;;;;;10.02;1.65;;;9.30;99.90;;;;;;4935876;29;20044;-90
2023/01/05 01:26:05;;;;;;;13.43;2.08;;;9.30;99.90;;;;;;4937085;29;20042;-90
2023/01/05 01:28:31;;;;;;;13.00;1.50;;;9.30;99.90;;;;;;4940221;29;20366;-90
2023/01/05 01:30:57;;;;;;;11.27;1.83;;;9.30;99.90;;;;;;4945079;29;20118;-89
2023/01/05 01:33:23;;;;;;;11.40;1.40;;;9.30;99.90;;;;;;4940637;29;20020;-90
2023/01/05 01:35:48;;;;;;;10.35;1.48;;;9.30;99.90;;;;;;4922057;29;20056;-89
2023/01/05 01:38:14;;;;;;;12.70;3.53;;;9.30;99.90;;;;;;4936371;29;20027;-90
2023/01/05 01:40:41;;;;;;;15.40;1.67;;;9.30;99.90;;;;;;4939313;29;20023;-92
2023/01/05 01:43:13;;;;;;;11.10;1.00;;;9.30;99.90;;;;;;4938080;29;20027;-90
2023/01/05 01:45:39;;;;;;;10.90;1.60;;;9.30;99.90;;;;;;4938274;29;20548;-90
2023/01/05 01:48:06;;;;;;;8.55;1.23;;;9.30;99.90;;;;;;4939280;29;20031;-90
2023/01/05 01:50:43;;;;;;;12.85;1.88;;;9.30;99.90;;;;;;4922264;29;20529;-89
2023/01/05 01:53:33;;;;;;;5.15;1.00;;;9.30;99.90;;;;;;4938954;29;20023;-89
2023/01/05 01:56:01;;;;;;;8.70;1.53;;;9.30;99.90;;;;;;4938371;29;20027;-89
2023/01/05 01:58:30;;;;;;;6.68;1.08;;;9.30;99.90;;;;;;4919982;29;20849;-90
2023/01/05 02:00:59;;;;;;;12.15;1.08;;;9.30;99.90;;;;;;4939107;29;20031;-89
2023/01/05 02:03:26;;;;;;;6.43;1.60;;;9.30;99.90;;;;;;4938782;29;20020;-90
2023/01/05 02:05:53;;;;;;;6.97;1.50;;;9.30;99.90;;;;;;4938796;29;20035;-90
2023/01/05 02:08:30;;;;;;;7.97;1.75;;;9.30;99.90;;;;;;4938665;29;20043;-86
2023/01/05 02:11:29;;;;;;;11.93;1.58;;;9.30;99.90;;;;;;4938680;29;20421;-90
2023/01/05 02:14:08;;;;;;;8.77;1.75;;;9.30;99.90;;;;;;4937573;29;20035;-90
2023/01/05 02:16:52;;;;;;;6.20;1.20;;;9.30;99.90;;;;;;4937343;29;20031;-89
2023/01/05 02:19:44;;;;;;;7.20;1.40;;;9.30;99.90;;;;;;4936755;29;20059;-90
2023/01/05 02:22:30;;;;;;;7.32;2.13;;;9.30;99.90;;;;;;4913463;29;20048;-89
2023/01/05 02:25:15;;;;;;;12.50;1.55;;;9.30;99.90;;;;;;4912852;29;20542;-90
2023/01/05 02:28:11;;;;;;;11.50;1.75;;;9.30;99.90;;;;;;4937903;29;20106;-90
2023/01/05 02:31:01;;;;;;;12.50;1.70;;;9.30;99.90;;;;;;4936431;29;20126;-89
2023/01/05 02:33:27;;;;;;;9.75;1.80;;;9.30;99.90;;;;;;4935016;29;20028;-90
2023/01/05 02:36:27;;;;;;;9.30;1.70;;;9.30;99.90;;;;;;4920274;29;20530;-91
2023/01/05 02:38:59;;;;;;;9.32;1.48;;;9.30;99.90;;;;;;4936808;29;20024;-90
2023/01/05 02:41:31;;;;;;;5.60;1.02;;;9.30;99.90;;;;;;4917752;29;20032;-90
2023/01/05 02:43:59;;;;;;;6.93;1.42;;;9.20;99.90;;;;;;4920845;29;20036;-88
2023/01/05 02:46:24;;;;;;;12.27;1.95;;;9.20;99.90;;;;;;4936033;29;20126;-91
2023/01/05 02:48:52;;;;;;;9.32;1.70;;;9.30;99.90;;;;;;4920827;29;20067;-90
2023/01/05 02:51:25;;;;;;;11.85;1.67;;;9.20;99.90;;;;;;4937829;29;20556;-89
2023/01/05 02:54:07;;;;;;;9.23;1.35;;;9.20;99.90;;;;;;4911382;29;20056;-90
2023/01/05 02:56:51;;;;;;;7.60;1.27;;;9.20;99.90;;;;;;4919407;29;20091;-90
2023/01/05 02:59:40;;;;;;;10.77;1.52;;;9.20;99.90;;;;;;4936981;29;20114;-90
2023/01/05 03:02:10;;;;;;;7.30;1.40;;;9.10;99.90;;;;;;4937552;29;20026;-90
2023/01/05 03:04:52;;;;;;;9.05;1.10;;;9.10;99.90;;;;;;4920775;29;20032;-90
2023/01/05 03:07:24;;;;;;;11.20;2.17;;;9.10;99.90;;;;;;4937593;29;20505;-90
2023/01/05 03:09:50;;;;;;;8.70;1.23;;;9.10;99.90;;;;;;4937382;29;20066;-89
2023/01/05 03:15:22;;;;;;;10.07;1.13;;;9.10;99.90;;;;;;4933855;29;20556;-90
2023/01/05 03:17:53;;;;;;;6.85;1.40;;;9.10;99.90;;;;;;4921012;29;20122;-89
2023/01/05 03:20:25;;;;;;;7.95;1.98;;;9.10;99.90;;;;;;4920826;29;20016;-89
2023/01/05 03:37:12;;;;;;;9.52;1.73;;;9.10;99.90;;;;;;4947880;29;19962;-88
2023/01/05 03:39:41;;;;;;;14.95;2.17;;;9.10;99.90;;;;;;4945634;29;20066;-90
2023/01/05 03:42:09;;;;;;;14.80;1.75;;;9.00;99.90;;;;;;4941136;29;20139;-87
2023/01/05 03:44:39;;;;;;;11.18;1.48;;;9.00;99.90;;;;;;4939415;29;20051;-88
2023/01/05 03:47:05;;;;;;;17.07;2.33;;;9.00;99.90;;;;;;4938316;29;20040;-90
2023/01/05 03:49:31;;;;;;;6.18;1.90;;;9.00;99.90;;;;;;4938057;29;20044;-89
2023/01/05 03:51:57;;;;;;;9.55;1.70;;;9.00;99.90;;;;;;4937944;29;20024;-89
2023/01/05 03:54:22;;;;;;;8.48;1.63;;;9.00;99.90;;;;;;4937562;29;20031;-89
2023/01/05 03:56:48;;;;;;;15.05;1.95;;;9.00;99.90;;;;;;4920765;29;20024;-90
2023/01/05 03:59:14;;;;;;;11.57;1.65;;;9.00;99.90;;;;;;4937583;29;20030;-89
2023/01/05 04:01:40;;;;;;;11.40;1.40;;;9.00;99.90;;;;;;4917782;29;20028;-89
2023/01/05 04:04:05;;;;;;;10.23;1.45;;;9.00;99.90;;;;;;4928322;29;20493;-89
2023/01/05 04:06:31;;;;;;;15.15;1.75;;;9.00;99.90;;;;;;4936040;29;20035;-90
2023/01/05 04:08:56;;;;;;;11.73;2.28;;;9.00;99.90;;;;;;4936072;29;20153;-90
2023/01/05 04:11:23;;;;;;;10.07;1.50;;;9.00;99.90;;;;;;4937668;29;20027;-90
2023/01/05 04:13:50;;;;;;;11.50;1.65;;;9.00;99.90;;;;;;4936503;29;20035;-90
2023/01/05 04:16:16;;;;;;;15.88;3.08;;;9.00;99.90;;;;;;4937679;29;20028;-89
2023/01/05 04:18:41;;;;;;;10.98;2.03;;;8.90;99.90;;;;;;4921314;29;20030;-90
2023/01/05 04:21:07;;;;;;;12.93;2.33;;;8.90;99.90;;;;;;4938014;29;20517;-90
2023/01/05 04:23:33;;;;;;;14.05;2.00;;;8.90;99.90;;;;;;4919278;29;20022;-90
2023/01/05 04:25:59;;;;;;;15.32;2.70;;;8.90;99.90;;;;;;4940945;29;20035;-89
2023/01/05 04:28:25;;;;;;;16.13;2.33;;;8.90;99.90;;;;;;4938733;29;20123;-91
2023/01/05 04:30:52;;;;;;;8.45;2.35;;;8.90;99.90;;;;;;4941251;29;20119;-90
2023/01/05 04:33:19;;;;;;;9.93;1.33;;;8.90;99.90;;;;;;4922866;29;20027;-90
2023/01/05 04:35:45;;;;;;;12.90;2.70;;;8.90;99.90;;;;;;4934270;29;20019;-89
2023/01/05 04:38:11;;;;;;;18.77;3.45;;;9.00;99.90;;;;;;4936652;29;20023;-90
2023/01/05 04:40:37;;;;;;;9.63;2.25;;;8.90;99.90;;;;;;4919332;29;20490;-90
2023/01/05 04:43:03;;;;;;;16.73;1.83;;;8.90;99.90;;;;;;4919540;29;20123;-90
2023/01/05 04:45:29;;;;;;;15.35;1.90;;;8.90;99.90;;;;;;4936647;29;20023;-88
2023/01/05 04:47:55;;;;;;;14.55;1.95;;;9.00;99.90;;;;;;4936065;29;20182;-89
2023/01/05 04:50:20;;;;;;;9.48;1.90;;;8.90;99.90;;;;;;4936056;29;20039;-90
2023/01/05 04:52:46;;;;;;;21.00;2.85;;;8.90;99.90;;;;;;4919367;29;20430;-90
2023/01/05 04:55:12;;;;;;;11.00;2.28;;;8.90;99.90;;;;;;4919436;29;20027;-90
2023/01/05 04:57:37;;;;;;;10.77;1.88;;;8.90;99.90;;;;;;4936089;29;20078;-89
2023/01/05 05:00:04;;;;;;;10.70;1.60;;;8.90;99.90;;;;;;4935798;29;20083;-92
2023/01/05 05:02:30;;;;;;;12.48;1.80;;;8.90;99.90;;;;;;4919268;29;20107;-90
2023/01/05 05:04:55;;;;;;;8.90;1.55;;;8.90;99.90;;;;;;4935320;29;20099;-90
2023/01/05 05:07:21;;;;;;;8.68;1.77;;;8.90;99.90;;;;;;4935782;29;20481;-90
2023/01/05 05:09:47;;;;;;;9.65;2.13;;;8.90;99.90;;;;;;4935799;29;20548;-89
2023/01/05 05:12:13;;;;;;;23.17;3.33;;;8.90;99.90;;;;;;4934850;29;20100;-90
2023/01/05 05:14:39;;;;;;;17.80;1.80;;;8.90;99.90;;;;;;4935640;29;20621;-89
2023/01/05 05:17:05;;;;;;;11.70;1.80;;;8.90;99.90;;;;;;4918867;29;20024;-89
2023/01/05 05:19:31;;;;;;;13.70;1.70;;;8.90;99.90;;;;;;4918878;29;20601;-89
2023/01/05 05:21:57;;;;;;;14.65;3.05;;;8.90;99.90;;;;;;4929853;29;20190;-90
2023/01/05 05:24:22;;;;;;;11.57;2.03;;;8.90;99.90;;;;;;4935599;29;20084;-89
2023/01/05 05:26:48;;;;;;;11.15;1.80;;;8.90;99.90;;;;;;4935688;29;20020;-90
2023/01/05 05:29:14;;;;;;;11.57;1.42;;;9.00;99.90;;;;;;4934833;29;20034;-90
2023/01/05 05:31:39;;;;;;;12.77;2.47;;;9.00;99.90;;;;;;4934756;29;20034;-89
2023/01/05 05:34:05;;;;;;;11.55;2.28;;;9.00;99.90;;;;;;4936432;29;20054;-91
2023/01/05 05:36:32;;;;;;;13.35;1.60;;;9.00;99.90;;;;;;4935667;29;20028;-90
2023/01/05 05:38:58;;;;;;;18.20;3.28;;;9.00;99.90;;;;;;4931824;29;20023;-90
2023/01/05 05:41:24;;;;;;;11.63;1.67;;;9.10;99.90;;;;;;4935394;29;20099;-90
2023/01/05 05:43:50;;;;;;;12.48;2.35;;;9.00;99.90;;;;;;4932951;29;20016;-91
2023/01/05 05:46:15;;;;;;;17.77;2.83;;;9.00;99.90;;;;;;4935512;29;20028;-90
2023/01/05 05:48:41;;;;;;;5.35;1.30;;;9.00;99.90;;;;;;4950187;29;20032;-90
2023/01/05 05:51:06;;;;;;;10.82;1.73;;;9.00;99.90;;;;;;4926770;29;20019;-90
2023/01/05 05:53:32;;;;;;;6.13;1.27;;;9.00;99.90;;;;;;4950759;29;20154;-90
2023/01/05 05:55:58;;;;;;;14.45;1.58;;;8.90;99.90;;;;;;4934704;29;20462;-91
2023/01/05 05:58:24;;;;;;;17.13;2.00;;;8.90;99.90;;;;;;4950503;29;20024;-90
2023/01/05 06:00:49;;;;;;;10.57;1.95;;;8.90;99.90;;;;;;4934337;29;20028;-89
2023/01/05 06:03:15;;;;;;;17.55;2.22;;;8.90;99.90;;;;;;4935293;29;20027;-89
2023/01/05 06:05:41;;;;;;;6.80;1.40;;;8.90;99.90;;;;;;4935433;29;20028;-90
2023/01/05 06:08:06;;;;;;;9.32;1.88;;;8.90;99.90;;;;;;4933257;29;20035;-90
2023/01/05 06:10:32;;;;;;;11.85;2.40;;;8.90;99.90;;;;;;4935310;29;20032;-90
2023/01/05 06:12:58;;;;;;;19.92;2.92;;;8.90;99.90;;;;;;4949108;29;20118;-90
2023/01/05 06:15:23;;;;;;;21.75;2.58;;;8.80;99.90;;;;;;4935520;29;20034;-90
2023/01/05 06:17:49;;;;;;;13.65;2.17;;;8.80;99.90;;;;;;4938727;29;20023;-90
2023/01/05 06:20:16;;;;;;;11.70;2.15;;;8.80;99.90;;;;;;4938293;29;20573;-90
2023/01/05 06:22:42;;;;;;;20.50;2.15;;;8.80;99.90;;;;;;4937318;29;20028;-91
2023/01/05 06:25:09;;;;;;;10.80;1.80;;;8.80;99.90;;;;;;4938485;29;20035;-90
2023/01/05 06:27:34;;;;;;;12.25;2.00;;;8.70;99.90;;;;;;4938433;29;20071;-90
2023/01/05 06:30:00;;;;;;;8.63;1.40;;;8.70;99.90;;;;;;4938524;29;20059;-91
2023/01/05 06:32:26;;;;;;;14.60;1.65;;;8.70;99.90;;;;;;4919109;29;20453;-90
2023/01/05 06:34:51;;;;;;;17.08;1.95;;;8.70;99.90;;;;;;4928519;29;20082;-90
2023/01/05 06:37:17;;;;;;;8.07;1.77;;;8.70;99.90;;;;;;4921340;29;20087;-90
2023/01/05 06:39:43;;;;;;;16.83;2.10;;;8.70;99.90;;;;;;4937564;29;20026;-91
2023/01/05 06:42:09;;;;;;;13.95;1.73;;;8.70;99.90;;;;;;4920164;29;20390;-91
2023/01/05 06:44:34;;;;;;;11.02;1.98;;;8.70;99.90;;;;;;4919062;29;20097;-89
2023/01/05 06:47:00;;;;;;;12.57;1.63;;;8.70;99.90;;;;;;4936753;29;20038;-89
2023/01/05 06:49:26;;;;;;;11.25;1.75;;;8.70;99.90;;;;;;4936863;29;20038;-89
2023/01/05 06:51:51;;;;;;;14.85;2.35;;;8.70;99.90;;;;;;4936943;29;20434;-91
2023/01/05 06:54:17;;;;;;;15.77;2.15;;;8.70;99.90;;;;;;4935933;29;20066;-89
2023/01/05 06:56:42;;;;;;;8.30;1.77;;;8.70;99.90;;;;;;4912279;29;20027;-89
2023/01/05 06:59:11;;;;;;;17.45;2.88;;;8.70;99.90;;;;;;4937450;29;20401;-90
2023/01/05 07:01:37;;;;;;;10.90;2.05;;;8.70;99.90;;;;;;4918388;29;20031;-91
2023/01/05 07:04:03;;;;;;;14.85;2.50;;;8.70;99.90;;;;;;4935831;29;20091;-90
2023/01/05 07:06:29;;;;;;;13.45;2.58;;;8.70;99.90;;;;;;4935714;29;20027;-90
2023/01/05 07:08:55;;;;;;;16.50;1.85;;;8.70;99.90;;;;;;4936842;29;20106;-90
2023/01/05 07:11:20;;;;;;;11.75;2.08;;;8.70;99.90;;;;;;4919358;29;20031;-90
2023/01/05 07:13:48;;;;;;;15.40;2.30;;;8.70;99.90;;;;;;4937747;29;20028;-89
2023/01/05 07:16:14;;;;;;;9.90;1.70;;;8.70;99.90;;;;;;4937951;29;20020;-90
2023/01/05 07:18:39;;;;;;;14.80;1.92;;;8.70;99.90;;;;;;4938269;29;20026;-90
2023/01/05 07:21:05;;;;;;;14.85;1.52;;;8.70;99.90;;;;;;4937721;29;20123;-89
2023/01/05 07:23:31;;;;;;;11.98;1.83;;;8.70;99.90;;;;;;4937766;29;20049;-88
2023/01/05 07:26:00;;;;;;;13.50;1.65;;;8.70;99.90;;;;;;4937404;29;20500;-90
2023/01/05 07:28:25;;;;;;;19.77;4.47;;;8.70;99.90;;;;;;4920616;29;20035;-90
2023/01/05 07:30:51;;;;;;;11.15;1.63;;;8.70;99.90;;;;;;4920174;29;20016;-90
2023/01/05 07:33:17;;;;;;;20.52;2.67;;;8.70;99.90;;;;;;4941128;29;20155;-88
2023/01/05 07:35:43;;;;;;;11.82;1.75;;;8.70;99.90;;;;;;4939146;29;20060;-90
2023/01/05 07:38:09;;;;;;;11.23;2.10;;;8.60;99.90;;;;;;4935582;29;20037;-90
2023/01/05 07:40:35;;;;;;;20.70;4.70;;;8.60;99.90;;;;;;4921771;29;20028;-88
2023/01/05 07:43:01;;;;;;;8.38;1.27;;;8.60;99.90;;;;;;4937315;29;20127;-89
2023/01/05 07:45:27;;;;;;;16.13;3.13;;;8.60;99.90;;;;;;4937696;29;20023;-91
2023/01/05 07:47:53;;;;;;;15.98;2.40;;;8.60;99.90;;;;;;4920780;29;20110;-91
2023/01/05 07:50:18;;;;;;;18.35;2.08;;;8.60;99.90;;;;;;4945613;29;20019;-89
2023/01/05 07:52:44;;;;;;;22.92;5.05;;;8.50;99.90;;;;;;4934617;29;20027;-91
2023/01/05 07:55:10;;;;;;;10.52;2.20;;;8.50;99.90;;;;;;4940767;29;20023;-88
2023/01/05 07:57:35;;;;;;;14.82;3.70;;;8.50;99.90;;;;;;4938201;29;20040;-89
2023/01/05 08:00:01;;;;;;;13.68;2.58;;;8.50;99.90;;;;;;4936344;29;20035;-90
2023/01/05 08:02:27;;;;;;;15.65;2.10;;;8.50;99.90;;;;;;4919834;29;20114;-91
2023/01/05 08:04:52;;;;;;;14.43;2.00;;;8.50;99.90;;;;;;4919660;29;20023;-90
2023/01/05 08:07:18;;;;;;;18.83;2.38;;;8.50;99.90;;;;;;4919487;29;20036;-90
2023/01/05 08:12:29;;;;;;;28.98;4.15;;;8.50;99.90;;;;;;4936668;29;20099;-91
2023/01/05 08:14:55;;;;;;;25.35;2.97;;;8.50;99.90;;;;;;4916694;29;20485;-91
2023/01/05 08:17:21;;;;;;;21.17;2.65;;;8.50;99.90;;;;;;4936337;29;20035;-90
2023/01/05 08:19:47;;;;;;;23.48;3.47;;;8.50;99.90;;;;;;4935217;29;20451;-90
2023/01/05 08:22:12;;;;;;;20.48;3.47;;;8.50;99.90;;;;;;4935932;29;20044;-91
2023/01/05 08:24:38;;;;;;;19.85;2.42;;;8.50;99.90;;;;;;4936133;29;20039;-91
2023/01/05 08:27:03;;;;;;;28.58;3.47;;;8.50;99.90;;;;;;4934997;29;20115;-91
2023/01/05 08:29:29;;;;;;;29.40;4.82;;;8.50;99.90;;;;;;4935690;29;20039;-91
2023/01/05 08:31:55;;;;;;;30.00;3.22;;;8.50;99.90;;;;;;4919242;29;20140;-91
2023/01/05 08:34:21;;;;;;;35.42;3.83;;;8.50;99.90;;;;;;4935739;29;20445;-91
2023/01/05 08:36:46;;;;;;;27.65;3.90;;;8.50;99.90;;;;;;4933328;29;20020;-91
2023/01/05 08:39:12;;;;;;;30.75;3.83;;;8.50;99.90;;;;;;4918422;29;20181;-91
2023/01/05 08:41:39;;;;;;;22.05;3.22;;;8.50;99.90;;;;;;4935971;29;20091;-91
2023/01/05 08:44:10;;;;;;;28.30;3.22;;;8.50;99.90;;;;;;4918807;29;20122;-90
2023/01/05 08:46:36;;;;;;;;;;;8.40;99.90;;;;;;4936243;29;20039;-90
2023/01/05 08:49:04;;;;;;;29.15;5.45;;;8.50;99.90;;;;;;4918953;29;20014;-88
2023/01/05 08:51:31;;;;;;;23.30;3.40;;;8.50;99.90;;;;;;4918665;29;20027;-89
2023/01/05 08:53:57;;;;;;;22.33;4.03;;;8.50;99.90;;;;;;4919031;29;20020;-89
2023/01/05 08:56:25;;;;;;;31.55;4.82;;;8.50;99.90;;;;;;4918626;29;20047;-88
2023/01/05 08:58:51;;;;;;;22.50;3.28;;;8.50;99.90;;;;;;4934484;29;20024;-89
2023/01/05 09:01:20;;;;;;;30.10;3.97;;;8.50;99.90;;;;;;4935533;29;20044;-90
2023/01/05 09:03:46;;;;;;;23.50;3.10;;;8.50;99.90;;;;;;4935572;29;20031;-90
2023/01/05 09:06:12;;;;;;;25.20;4.28;;;8.40;99.90;;;;;;4935750;29;20027;-90
2023/01/05 09:08:40;;;;;;;29.67;3.47;;;8.40;99.90;;;;;;4935269;29;20058;-90
2023/01/05 09:11:08;;;;;;;26.55;4.57;;;8.40;99.90;;;;;;4918401;29;20214;-90
2023/01/05 09:13:34;;;;;;;25.73;3.63;;;8.40;99.90;;;;;;4935482;29;20024;-90
2023/01/05 09:16:09;;;;;;;20.83;3.80;;;8.30;99.90;;;;;;4918792;29;20106;-89
2023/01/05 09:18:35;;;;;;;25.15;3.33;;;8.40;99.90;;;;;;4935674;29;20095;-89
2023/01/05 09:21:01;;;;;;;16.83;3.70;;;8.30;99.90;;;;;;4935049;29;20691;-88
2023/01/05 09:23:27;;;;;;;21.85;5.05;;;8.30;99.90;;;;;;4916509;29;20055;-89
2023/01/05 09:25:53;;;;;;;21.55;3.67;;;8.30;99.90;;;;;;4935343;29;20363;-89
2023/01/05 09:28:18;;;;;;;20.83;3.13;;;8.30;99.90;;;;;;4935202;29;20028;-89
2023/01/05 09:30:44;;;;;;;26.33;3.53;;;8.30;99.90;;;;;;4935901;29;20043;-89
2023/01/05 09:33:12;;;;;;;19.30;4.35;;;8.30;99.90;;;;;;4939840;29;20028;-88
2023/01/05 09:35:38;;;;;;;21.00;3.17;;;8.20;99.90;;;;;;4910492;29;20047;-91
2023/01/05 09:38:03;;;;;;;21.83;3.25;;;8.30;99.90;;;;;;4934787;29;20027;-89
2023/01/05 09:40:33;;;;;;;20.95;2.90;;;8.30;99.90;;;;;;4929832;29;20406;-89
2023/01/05 09:42:59;;;;;;;20.80;3.65;;;8.20;99.90;;;;;;4932371;29;20114;-89
2023/01/05 09:45:26;;;;;;;20.92;3.67;;;8.30;99.90;;;;;;4931428;29;20110;-88
2023/01/05 09:47:54;;;;;;;27.90;3.42;;;8.20;99.90;;;;;;4931498;29;20393;-89
2023/01/05 09:50:26;;;;;;;22.92;3.42;;;8.20;99.90;;;;;;4924537;29;20422;-90
2023/01/05 09:52:56;;;;;;;15.95;3.70;;;8.20;99.90;;;;;;4935162;29;20035;-90
2023/01/05 09:55:25;;;;;;;24.30;6.65;;;8.30;99.90;;;;;;4934789;29;20108;-88
2023/01/05 09:58:01;;;;;;;15.93;3.40;;;8.20;99.90;;;;;;4933409;29;20034;-89
2023/01/05 10:00:28;;;;;;;26.38;3.92;;;8.30;99.90;;;;;;4935018;29;20485;-89
2023/01/05 10:02:56;;;;;;;16.10;3.15;;;8.30;99.90;;;;;;4937103;29;20508;-89
2023/01/05 10:05:26;;;;;;;14.85;3.25;;;8.30;99.90;;;;;;4939472;29;20028;-90
2023/01/05 10:07:59;;;;;;;18.10;3.42;;;8.30;99.90;;;;;;4938106;29;20070;-90
2023/01/05 10:13:01;;;;;;;19.55;3.63;;;8.30;99.90;;;;;;4922306;29;20035;-91
2023/01/05 10:13:35;;;;;;;15.40;3.33;;;8.30;99.90;;;;;;4938064;29;20043;-91
2023/01/05 10:16:02;;;;;;;13.38;3.25;;;8.30;99.90;;;;;;4938850;29;20028;-90
2023/01/05 10:18:30;;;;;;;8.75;2.55;;;8.30;99.90;;;;;;4936977;29;20035;-89
2023/01/05 10:21:10;;;;;;;10.75;2.80;;;8.30;99.90;;;;;;4920938;29;20138;-90
2023/01/05 10:23:56;;;;;;;;;;;8.30;99.90;;;;;;4934759;29;20393;-90
2023/01/05 10:26:27;;;;;;;11.07;2.25;;;8.30;99.90;;;;;;4937985;29;20005;-91
2023/01/05 10:29:04;;;;;;;16.15;2.78;;;8.30;99.90;;;;;;4936894;29;20115;-91
2023/01/05 10:31:49;;;;;;;16.02;3.25;;;8.30;99.90;;;;;;4937274;29;20079;-90
2023/01/05 10:34:40;;;;;;;11.90;3.65;;;8.40;99.90;;;;;;4936811;29;20548;-90
2023/01/05 10:37:27;;;;;;;19.48;3.20;;;8.40;99.90;;;;;;4913354;29;20027;-89
2023/01/05 10:40:01;;;;;;;13.50;3.72;;;8.40;99.90;;;;;;4934965;29;20104;-90
2023/01/05 10:42:59;;;;;;;15.27;4.90;;;8.40;99.90;;;;;;4936535;29;20032;-89
2023/01/05 10:45:29;;;;;;;14.10;3.78;;;8.40;99.90;;;;;;4851592;29;20037;-89
2023/01/05 10:47:54;;;;;;;15.80;3.90;;;8.40;99.90;;;;;;4853673;29;20137;-89
2023/01/05 10:50:29;;;;;;;12.68;3.47;;;8.50;99.90;;;;;;4859036;29;20124;-90
2023/01/05 10:52:55;;;;;;;14.90;4.10;;;8.50;99.90;;;;;;4857009;29;20034;-90
2023/01/05 10:55:22;;;;;;;16.83;4.10;;;8.60;99.90;;;;;;4840354;29;20334;-92
2023/01/05 10:57:48;;;;;;;18.52;4.30;;;8.60;99.90;;;;;;4860627;29;20036;-91
2023/01/05 11:00:20;;;;;;;17.17;5.15;;;8.60;99.90;;;;;;4862286;29;20034;-91
2023/01/05 11:02:57;;;;;;;17.67;4.50;;;8.70;99.90;;;;;;4860451;29;20037;-91
2023/01/05 11:05:26;;;;;;;21.73;5.53;;;8.80;99.90;;;;;;4868004;29;20447;-90
2023/01/05 11:07:58;;;;;;;12.20;4.00;;;8.80;99.90;;;;;;4871247;29;20060;-91
2023/01/05 11:10:36;;;;;;;15.35;4.45;;;8.90;99.90;;;;;;4862797;29;20103;-92
2023/01/05 11:13:38;;;;;;;17.15;5.63;;;8.90;99.90;;;;;;4860588;29;20110;-91
2023/01/05 11:16:12;;;;;;;21.92;5.10;;;9.00;99.90;;;;;;4860393;29;20041;-91
2023/01/05 11:18:45;;;;;;;18.13;5.57;;;9.00;99.90;;;;;;4860350;29;20049;-92
2023/01/05 11:21:17;;;;;;;22.95;5.00;;;9.10;99.90;;;;;;4908473;29;20040;-91
2023/01/05 11:23:45;;;;;;;25.13;5.43;;;9.10;99.90;;;;;;4936692;29;20110;-92
2023/01/05 11:26:26;;;;;;;18.42;3.97;;;9.20;99.90;;;;;;4935841;29;20040;-92
2023/01/05 11:29:01;;;;;;;12.75;3.28;;;9.30;99.90;;;;;;4933288;29;20028;-90
2023/01/05 11:31:59;;;;;;;17.02;3.97;;;9.30;99.90;;;;;;4936231;29;20040;-91
2023/01/05 11:34:48;;;;;;;14.10;4.22;;;9.50;99.90;;;;;;4952495;29;20696;-91
2023/01/05 11:37:30;;;;;;;11.85;3.67;;;9.50;99.90;;;;;;4935310;29;20146;-91
2023/01/05 11:40:13;;;;;;;13.75;3.75;;;9.60;99.90;;;;;;4925681;29;20024;-90
2023/01/05 11:42:42;;;;;;;13.20;3.78;;;9.70;99.90;;;;;;4933911;29;20035;-89
2023/01/05 11:45:46;;;;;;;5.78;1.75;;;9.70;99.90;;;;;;4936369;29;20031;-91
2023/01/05 11:48:22;;;;;;;15.02;2.13;;;9.80;99.90;;;;;;4926673;29;20047;-91
2023/01/05 11:50:50;;;;;;;13.38;2.67;;;10.00;99.90;;;;;;4936279;29;20024;-90
2023/01/05 11:53:37;;;;;;;16.13;2.80;;;10.10;99.90;;;;;;4936230;29;20020;-90
2023/01/05 11:56:14;;;;;;;17.20;2.50;;;10.20;99.90;;;;;;4934296;29;20027;-91
2023/01/05 11:58:45;;;;;;;18.63;2.92;;;10.30;99.90;;;;;;4934848;29;20040;-90
2023/01/05 12:01:38;;;;;;;9.48;1.65;;;10.40;99.90;;;;;;4950996;29;20031;-89
2023/01/05 12:04:09;;;;;;;11.88;2.10;;;10.40;99.90;;;;;;4947812;29;20087;-90
2023/01/05 12:06:54;;;;;;;13.32;2.92;;;10.50;99.90;;;;;;4949025;29;20035;-89
2023/01/05 12:09:30;;;;;;;16.35;2.55;;;10.50;99.90;;;;;;4934396;29;20032;-89
2023/01/05 12:12:28;;;;;;;21.60;2.95;;;10.60;99.90;;;;;;4934270;29;20560;-88
2023/01/05 12:15:37;;;;;;;8.10;2.42;;;10.60;99.90;;;;;;4927751;29;20066;-89
2023/01/05 12:18:19;;;;;;;15.40;2.17;;;10.60;99.90;;;;;;4934852;29;20106;-91
2023/01/05 12:20:55;;;;;;;15.65;2.40;;;10.70;99.90;;;;;;4930850;29;20047;-89
2023/01/05 12:23:39;;;;;;;10.88;2.22;;;10.70;99.90;;;;;;4946725;29;20035;-88
2023/01/05 12:27:02;;;;;;;12.18;1.90;;;10.70;99.90;;;;;;4936935;29;20043;-90
2023/01/05 12:29:36;;;;;;;17.17;2.30;;;10.80;99.90;;;;;;4933598;29;20095;-89
2023/01/05 12:32:01;;;;;;;10.55;2.13;;;10.80;99.90;;;;;;4916769;29;20036;-91
2023/01/05 12:42:31;;;;;;;12.52;2.00;;;10.80;99.90;;;;;;4936739;29;20586;-95
2023/01/05 12:45:27;;;;;;;17.38;2.22;;;10.90;99.90;;;;;;4917886;29;20046;-92
2023/01/05 12:48:17;;;;;;;9.43;2.45;;;10.90;99.90;;;;;;4920356;29;20569;-95
2023/01/05 12:51:11;;;;;;;14.05;2.58;;;10.90;99.90;;;;;;4915957;29;20041;-94
2023/01/05 12:54:38;;;;;;;16.25;2.40;;;10.90;99.90;;;;;;4923040;29;20036;-95
2023/01/05 12:57:15;;;;;;;15.50;2.10;;;10.90;99.90;;;;;;4829954;29;20155;-94
2023/01/05 12:59:53;;;;;;;13.27;3.53;;;10.90;99.90;;;;;;4834114;29;20054;-94
2023/01/05 13:02:25;;;;;;;12.60;2.30;;;11.00;99.90;;;;;;4838079;29;20631;-93
2023/01/05 13:05:15;;;;;;;12.00;2.17;;;10.90;99.90;;;;;;4835904;29;20070;-95
2023/01/05 13:08:16;;;;;;;9.30;1.70;;;10.90;99.90;;;;;;4835451;29;20117;-95
2023/01/05 13:11:02;;;;;;;;;;;10.90;99.90;;;;;;4826864;29;20536;-95
2023/01/05 13:13:50;;;;;;;7.13;2.17;;;10.90;99.90;;;;;;4813758;29;19913;-95
2023/01/05 13:16:36;;;;;;;12.05;2.15;;;10.80;99.90;;;;;;4822089;29;20029;-95
2023/01/05 13:19:43;;;;;;;11.32;2.20;;;10.80;99.90;;;;;;4819606;29;20055;-95
2023/01/05 13:22:27;;;;;;;8.05;1.40;;;10.80;99.90;;;;;;4802742;30;20031;-95
2023/01/05 13:25:33;;;;;;;11.73;1.83;;;10.80;99.90;;;;;;4802719;29;20046;-95
2023/01/05 13:27:59;;;;;;;9.43;1.52;;;10.80;99.90;;;;;;4770956;30;20086;-95
2023/01/05 13:30:29;;;;;;;8.10;1.63;;;10.80;99.90;;;;;;4769712;30;20048;-95
2023/01/05 13:33:07;;;;;;;9.18;1.40;;;10.90;99.90;;;;;;4801677;29;20049;-94
2023/01/05 13:35:33;;;;;;;5.03;1.83;;;10.90;99.90;;;;;;4827459;29;20027;-95
2023/01/05 13:38:35;;;;;;;3.28;1.10;;;10.90;99.90;;;;;;4821131;29;20042;-94
2023/01/05 13:41:23;;;;;;;7.75;1.48;;;10.90;99.90;;;;;;4815750;29;20066;-96
2023/01/05 13:44:07;;;;;;;8.27;1.58;;;11.00;99.90;;;;;;4825814;29;20140;-95
2023/01/05 13:46:50;;;;;;;6.60;1.10;;;10.90;99.90;;;;;;4825649;29;20034;-96
2023/01/05 13:49:27;;;;;;;8.07;1.50;;;11.00;99.90;;;;;;4825987;29;20054;-94